Latest Coastal Weather Observations for Groote Eylandt Airport

IDD60701

Issued at 11:11 pm CST Tuesday 24 May 2016 (issued every 10 minutes, with the page automatically refreshed every 10 minutes)

About coastal observations | Map of coastal stations | Coastal observations for NT | Marine services | Other Formats
Station Details ID: 014518 Name: GROOTE EYLANDT AIRPORT Lat: -13.97 Lon: 136.46 Height: 13.7 m
Data from the previous 72 hours. | See also: Recent months at Groote Eylandt Airport
Date/Time
CST
Temp

°C
Wind Pressure Rain
since 9am
mm
Weather Cloud Vis
km
Sea
Height
m
Swell
Dir
 
Speed
knots
Gust
knots
hPa Trend Height
m
Period
s
Dir
24/11:00pm 23.4 CALM 0 0 1013.2 - 0.0 - - 10 - - - -
24/10:30pm 23.8 CALM 0 0 1013.3 - 0.0 - - 10 - - - -
24/10:00pm 23.9 SE 2 4 1013.4 - 0.0 - - 10 - - - -
24/09:30pm 24.1 CALM 0 0 1013.6 - 0.0 - - 10 - - - -
24/09:00pm 24.4 SE 1 3 1013.4 - 0.0 - - 10 - - - -
24/08:30pm 24.7 SSE 2 5 1013.1 - 0.0 - - 10 - - - -
24/08:00pm 24.7 SSE 3 5 1012.9 - 0.0 - - 10 - - - -
24/07:30pm 25.1 ESE 2 4 1012.5 - 0.0 - - 10 - - - -
24/07:00pm 25.5 SSE 3 4 1012.3 - 0.0 - - 10 - - - -
24/06:30pm 25.9 SSE 5 8 1012.0 - 0.0 - - 10 - - - -
24/06:00pm 26.5 S 6 10 1011.9 - 0.0 - - 10 - - - -
24/05:30pm 27.2 SSE 6 9 1011.4 - 0.0 - - 10 - - - -
24/05:00pm 27.1 S 7 11 1010.9 - 0.0 - Partly cloudy 10 - - - -
24/04:30pm 28.2 SSE 7 12 1010.4 - 0.0 - Partly cloudy 10 - - - -
24/04:00pm 29.0 S 8 16 1010.5 - 0.0 - Partly cloudy 10 - - - -
24/03:30pm 29.5 SSW 8 15 1010.5 - 0.0 - Partly cloudy 10 - - - -
24/03:00pm 29.3 SSW 7 11 1010.4 - 0.0 - Partly cloudy 10 - - - -
24/02:30pm 29.5 S 6 10 1010.4 - 0.0 - Partly cloudy 10 - - - -
24/02:00pm 29.4 S 7 9 1010.6 - 0.0 - Partly cloudy 10 - - - -
24/01:30pm 29.9 SSE 6 9 1011.0 - 0.0 - Partly cloudy 10 - - - -
24/01:00pm 29.6 SSE 6 10 1011.8 - 0.0 - Partly cloudy 10 - - - -
24/12:30pm 29.2 SSE 7 11 1012.4 - 0.0 - Partly cloudy 10 - - - -
24/12:00pm 29.0 SSE 8 11 1012.8 - 0.0 - Partly cloudy 10 - - - -
24/11:30am 27.8 S 7 13 1013.2 - 0.0 - Partly cloudy 10 - - - -
24/11:00am 28.2 SSW 6 11 1013.4 - 0.0 - Partly cloudy 10 - - - -
24/10:30am 28.5 SSE 8 15 1013.9 - 0.0 - Partly cloudy 10 - - - -
24/10:00am 27.6 S 5 8 1013.9 - 0.0 - Partly cloudy 10 - - - -
24/09:30am 28.9 S 4 6 1013.8 - 0.0 - Partly cloudy 10 - - - -
24/09:00am 27.7 S 6 10 1013.7 - 0.0 - - 10 - - - -
24/08:30am 26.7 SSE 4 7 1013.4 - 0.0 - - 10 - - - -
24/08:00am 24.8 CALM 0 0 1013.0 - 0.0 - - 10 - - - -
24/07:30am 23.5 CALM 0 0 1012.7 - 0.0 - Partly cloudy 10 - - - -
24/07:00am 23.2 CALM 0 0 1012.3 - 0.0 - Partly cloudy 10 - - - -
24/06:30am 22.9 CALM 0 0 1011.8 - 0.0 - Partly cloudy 10 - - - -
24/06:00am 23.3 CALM 0 0 1011.6 - 0.0 - - 10 - - - -
24/05:30am 23.3 CALM 0 0 1011.2 - 0.0 - Partly cloudy 10 - - - -
24/05:00am 23.4 CALM 0 0 1010.9 - 0.0 - Partly cloudy 10 - - - -
24/04:30am 23.3 CALM 0 0 1010.7 - 0.0 - - 10 - - - -
24/04:00am 23.5 CALM 0 0 1010.9 - 0.0 - - 10 - - - -
24/03:30am 23.7 CALM 0 0 1011.0 - 0.0 - - 10 - - - -
24/03:00am 23.4 SSE 3 5 1011.2 - 0.0 - - 10 - - - -
24/02:30am 23.4 CALM 0 0 1011.7 - 0.0 - - 10 - - - -
24/02:00am 23.6 CALM 0 0 1012.1 - 0.0 - - 10 - - - -
24/01:30am 23.7 CALM 0 0 1012.4 - 0.0 - - 10 - - - -
24/01:00am 23.5 SSE 1 4 1012.3 - 0.0 - - 10 - - - -
24/12:30am 24.0 CALM 0 0 1012.7 - 0.0 - - 10 - - - -
24/12:00am 24.0 CALM 0 0 1012.5 - 0.0 - - 10 - - - -
 
Date/Time
CST
Temp

°C
Wind Pressure Rain
since 9am
mm
Weather Cloud Vis
km
Sea
Height
m
Swell
Dir
 
Speed
knots
Gust
knots
hPa Trend Height
m
Period
s
Dir
23/11:30pm 24.0 CALM 0 3 1012.5 - 0.0 - - 10 - - - -
23/11:00pm 24.4 CALM 0 0 1012.9 - 0.0 - - 10 - - - -
23/10:30pm 24.6 SSE 2 3 1012.8 - 0.0 - Partly cloudy 10 - - - -
23/10:00pm 24.5 CALM 0 0 1012.9 - 0.0 - - 10 - - - -
23/09:30pm 24.8 CALM 0 0 1012.7 - 0.0 - - 10 - - - -
23/09:00pm 25.2 CALM 0 0 1012.7 - 0.0 - - 10 - - - -
23/08:30pm 25.6 CALM 0 0 1012.5 - 0.0 - - 10 - - - -
23/08:00pm 25.6 CALM 0 4 1012.2 - 0.0 - - 10 - - - -
23/07:30pm 26.2 SE 2 4 1011.7 - 0.0 - - 10 - - - -
23/07:00pm 26.5 SSE 4 6 1011.4 - 0.0 - - 10 - - - -
23/06:30pm 26.8 SSE 3 6 1011.2 - 0.0 - - 10 - - - -
23/06:00pm 27.5 SSE 5 9 1010.9 - 0.0 - Mostly clear 10 - - - -
23/05:30pm 27.5 S 3 5 1010.5 - 0.0 - Partly cloudy 10 - - - -
23/05:00pm 27.7 SSE 6 9 1010.2 - 0.0 - Partly cloudy 10 - - - -
23/04:30pm 28.7 SSE 5 8 1009.7 - 0.0 - Partly cloudy 10 - - - -
23/04:00pm 29.1 SE 5 8 1009.5 - 0.0 - Partly cloudy 10 - - - -
23/03:30pm 30.2 SSE 6 11 1009.5 - 0.0 - Partly cloudy 10 - - - -
23/03:00pm 29.9 SSE 6 11 1009.5 - 0.0 - Cloudy 10 - - - -
23/02:30pm 30.0 SE 7 11 1009.9 - 0.0 - Partly cloudy 10 - - - -
23/02:00pm 31.0 SE 6 9 1010.2 - 0.0 - Partly cloudy 10 - - - -
23/01:30pm 30.5 SSE 5 8 1010.7 - 0.0 - Partly cloudy 10 - - - -
23/01:00pm 30.7 SSE 7 9 1011.4 - 0.0 - Partly cloudy 10 - - - -
23/12:30pm 30.6 ESE 5 8 1012.1 - 0.0 - Partly cloudy 10 - - - -
23/12:00pm 30.5 E 5 8 1012.6 - 0.0 - Mostly clear 10 - - - -
23/11:30am 28.6 S 6 9 1013.0 - 0.0 - Partly cloudy 10 - - - -
23/11:00am 29.8 ESE 7 11 1013.5 - 0.0 - Partly cloudy 10 - - - -
23/10:30am 28.5 SE 6 9 1013.8 - 0.0 - Partly cloudy 10 - - - -
23/10:00am 27.9 SSE 7 10 1013.9 - 0.0 - Partly cloudy 10 - - - -
23/09:30am 28.6 SE 5 9 1013.8 - 0.0 - Partly cloudy 10 - - - -
23/09:00am 27.7 SSE 5 9 1013.9 - 20.8 - Partly cloudy 10 - - - -
23/08:30am 26.3 S 3 5 1013.8 - 20.8 - Partly cloudy 10 - - - -
23/08:00am 26.0 SSE 4 6 1013.4 - 20.8 - Partly cloudy 10 - - - -
23/07:30am 24.1 CALM 0 3 1013.1 - 20.8 - Partly cloudy 10 - - - -
23/07:00am 23.1 CALM 0 0 1012.9 - 20.8 - Partly cloudy 10 - - - -
23/06:30am 22.7 CALM 0 0 1012.5 - 20.8 - Partly cloudy 10 - - - -
23/06:00am 23.0 CALM 0 0 1012.3 - 20.8 - Mostly cloudy 10 - - - -
23/05:30am 23.0 CALM 0 0 1012.2 - 20.8 - - 10 - - - -
23/05:00am 23.3 SE 3 4 1012.0 - 20.8 - - 10 - - - -
23/04:30am 23.2 S 4 6 1011.8 - 20.8 - - 10 - - - -
23/04:00am 22.8 CALM 0 0 1011.8 - 20.8 - - 10 - - - -
23/03:30am 23.1 CALM 0 0 1011.7 - 20.8 - - 10 - - - -
23/03:00am 23.5 CALM 0 0 1011.8 - 20.8 - - 10 - - - -
23/02:30am 23.9 CALM 0 0 1012.0 - 20.8 - - 10 - - - -
23/02:00am 24.4 SE 3 4 1012.1 - 20.8 - - 10 - - - -
23/01:30am 24.6 SSE 3 4 1012.1 - 20.8 - - 10 - - - -
23/01:00am 24.6 SE 4 7 1012.3 - 20.8 - - 10 - - - -
23/12:30am 24.6 SE 3 5 1012.6 - 20.8 - - 10 - - - -
23/12:00am 24.9 ESE 4 6 1012.6 - 20.8 - - 10 - - - -
 
Date/Time
CST
Temp

°C
Wind Pressure Rain
since 9am
mm
Weather Cloud Vis
km
Sea
Height
m
Swell
Dir
 
Speed
knots
Gust
knots
hPa Trend Height
m
Period
s
Dir
22/11:30pm 24.8 SE 4 7 1012.7 - 20.8 - - 10 - - - -
22/11:00pm 24.5 SE 4 6 1012.6 - 20.8 - - 10 - - - -
22/10:30pm 24.3 ESE 5 6 1012.7 - 20.8 - - 10 - - - -
22/10:00pm 24.2 E 5 7 1012.7 - 20.8 - - 10 - - - -
22/09:30pm 24.1 ESE 5 7 1013.0 - 20.8 - - 10 - - - -
22/09:00pm 24.3 E 5 6 1012.9 - 20.8 - - 10 - - - -
22/08:30pm 24.5 ESE 6 9 1012.9 - 20.8 - - 10 - - - -
22/08:00pm 24.6 ESE 7 10 1012.9 - 20.8 - - 10 - - - -
22/07:30pm 24.8 ESE 6 12 1012.6 - 20.8 - - 10 - - - -
22/07:00pm 25.0 ESE 7 9 1012.5 - 20.8 - Partly cloudy 10 - - - -
22/06:30pm 25.4 SE 5 8 1012.5 - 20.8 - Cloudy 10 - - - -
22/06:00pm 25.5 ESE 4 6 1012.3 - 20.8 - Cloudy 10 - - - -
22/05:30pm 26.0 SSE 4 7 1012.0 - 20.8 - Partly cloudy 10 - - - -
22/05:00pm 25.5 SSE 7 11 1011.9 - 20.8 - Partly cloudy 10 - - - -
22/04:30pm 26.2 SE 5 7 1011.8 - 20.8 - Partly cloudy 10 - - - -
22/04:02pm 26.8 SSE 5 8 1011.5 - 20.8 - Partly cloudy 10 - - - -
22/04:00pm 26.6 SSE 5 8 1011.6 - 20.8 - Partly cloudy 10 - - - -
22/03:43pm 26.7 ESE 7 11 1011.6 - 20.8 - Partly cloudy 10 - - - -
22/03:30pm 27.5 E 6 9 1011.5 - 20.8 - Partly cloudy 10 - - - -
22/03:00pm 26.7 SE 7 9 1011.5 - 20.8 - Cloudy 10 - - - -
22/02:30pm 29.5 SSW 5 6 1011.6 - 20.8 - Partly cloudy 10 - - - -
22/02:00pm 29.3 WSW 4 6 1011.5 - 20.8 - Partly cloudy 10 - - - -
22/01:30pm 28.0 CALM 0 1 1012.0 - 20.8 - Partly cloudy 10 - - - -
22/01:00pm 26.6 CALM 0 3 1012.4 - 20.6 - Partly cloudy 10 - - - -
22/12:44pm 25.3 WNW 2 4 1012.6 - 20.4 - Partly cloudy 10 - - - -
22/12:30pm 25.3 NW 6 11 1012.8 - 20.2 - Partly cloudy 1 - - - -
22/12:00pm 25.7 S 5 9 1013.2 - 6.8 Showers Cloudy 1 - - - -
22/11:56am 26.1 S 5 9 1013.2 - 2.4 - Partly cloudy 5 - - - -
22/11:30am 28.6 SE 3 7 1013.1 - 0.0 - Partly cloudy 10 - - - -
22/11:00am 29.5 SSW 4 6 1013.3 - 0.0 - Partly cloudy 10 - - - -
22/10:30am 28.6 S 4 6 1013.6 - 0.0 - Partly cloudy 10 - - - -
22/10:00am 29.3 N 3 5 1013.8 - 0.0 - Partly cloudy 10 - - - -
22/09:30am 28.2 N 1 4 1014.0 - 0.0 - Partly cloudy 10 - - - -
22/09:00am 27.4 ENE 1 3 1013.9 - 137.6 Rain Mostly cloudy 10 - - - -
22/08:30am 26.4 ESE 1 3 1014.0 - 126.6 - - 10 - - - -
22/08:00am 24.7 CALM 0 0 1013.7 - 84.6 - Partly cloudy 10 - - - -
22/07:30am 23.8 CALM 0 0 1013.3 - 82.8 - Partly cloudy 10 - - - -
22/07:00am 22.4 CALM 0 0 1013.0 - 82.8 - Partly cloudy 10 - - - -
22/06:30am 22.2 CALM 0 0 1012.6 - 82.8 - Partly cloudy 10 - - - -
22/06:00am 22.6 CALM 0 0 1012.2 - 82.8 Recent precip. Mostly clear 10 - - - -
22/05:30am 22.4 CALM 0 0 1012.0 - 82.6 - - 10 - - - -
22/05:00am 22.6 CALM 0 0 1011.8 - 82.6 - - 10 - - - -
22/04:30am 22.7 CALM 0 0 1011.6 - 82.6 - - 10 - - - -
22/04:00am 23.0 CALM 0 0 1011.5 - 82.6 - - 10 - - - -
22/03:30am 23.0 CALM 0 0 1011.4 - 82.6 - - 10 - - - -
22/03:00am 23.3 CALM 0 0 1011.3 - 82.6 - - 10 - - - -
22/02:30am 23.3 CALM 0 0 1011.5 - 82.6 - - 10 - - - -
22/02:00am 23.5 ESE 1 3 1011.7 - 82.6 - - 10 - - - -
22/01:30am 23.8 ESE 3 4 1011.9 - 82.6 - - 10 - - - -
22/01:00am 24.1 CALM 0 0 1012.1 - 82.6 - Partly cloudy 10 - - - -
22/12:30am 24.5 ESE 2 3 1012.5 - 82.6 - Partly cloudy 10 - - - -
22/12:02am 24.6 E 6 9 1012.9 - 82.6 - Partly cloudy 6 - - - -
22/12:00am 24.5 E 6 9 1013.0 - 82.6 Showers Cloudy 6 - - - -
 
Date/Time
CST
Temp

°C
Wind Pressure Rain
since 9am
mm
Weather Cloud Vis
km
Sea
Height
m
Swell
Dir
 
Speed
knots
Gust
knots
hPa Trend Height
m
Period
s
Dir
21/11:34pm 24.4 SE 5 9 1013.2 - 81.6 - Partly cloudy 4 - - - -
21/11:30pm 24.3 SE 5 8 1013.2 - 81.4 - Partly cloudy 4 - - - -
21/11:20pm 24.1 SSW 3 4 1013.2 - 80.2 - Partly cloudy 5 - - - -
21/11:17pm 24.1 SSW 2 4 1013.2 - 80.0 - Partly cloudy 8 - - - -

Other Formats:

Comma delimited format used in spreadsheet applications
http://www.bom.gov.au/fwo/IDD60701/IDD60701.94153.axf

JavaScript Object Notation format (JSON) in row-major order
http://www.bom.gov.au/fwo/IDD60701/IDD60701.94153.json